Time;durP1;ratioP1;P1;durP2;ratioP2;P2;SDS_P1;SDS_P2;PMS_P1;PMS_P2;Temp;Humidity;BMP_temperature;BMP_pressure;BME280_temperature;BME280_humidity;BME280_pressure;Samples;Min_cycle;Max_cycle;Signal;HPM_P1;HPM_P2
2021/03/17 00:02:39;;;;;;;;;;;;;;;7.10;100.00;100770.91;5097307;28;20410;-81
2021/03/17 00:05:31;;;;;;;;;;;;;;;7.21;100.00;100766.44;5097074;28;19928;-81
2021/03/17 00:08:17;;;;;;;;;;;;;;;7.21;100.00;100771.16;5097290;28;19931;-81
2021/03/17 00:11:02;;;;;;;;;;;;;;;6.95;100.00;100757.81;5096151;28;19969;-81
2021/03/17 00:13:47;;;;;;;;;;;;;;;6.97;100.00;100768.59;5095876;28;19977;-81
2021/03/17 00:16:32;;;;;;;;;;;;;;;7.07;100.00;100760.50;5110176;28;20027;-81
2021/03/17 00:19:16;;;;;;;;;;;;;;;7.23;100.00;100757.72;5110572;28;19924;-80
2021/03/17 00:22:02;;;;;;;;;;;;;;;7.32;100.00;100758.34;5096864;28;20395;-81
2021/03/17 00:24:47;;;;;;;;;;;;;;;7.35;100.00;100754.84;5097052;28;19931;-80
2021/03/17 00:27:32;;;;;;;;;;;;;;;7.32;100.00;100750.81;5095770;28;19935;-80
2021/03/17 00:30:17;;;;;;;;;;;;;;;7.33;100.00;100751.59;5095555;28;19924;-80
2021/03/17 00:33:05;;;;;;;;;;;;;;;7.39;100.00;100752.97;5096634;28;20275;-81
2021/03/17 00:35:50;;;;;;;;;;;;;;;7.32;100.00;100758.34;5096964;28;19931;-81
2021/03/17 00:38:35;;;;;;;;;;;;;;;7.10;100.00;100764.56;5096476;28;19935;-81
2021/03/17 00:41:20;;;;;;;;;;;;;;;6.96;100.00;100761.41;5095402;28;19924;-81
2021/03/17 00:44:05;;;;;;;;;;;;;;;7.02;100.00;100762.75;5096789;28;19973;-81
2021/03/17 00:46:50;;;;;;;;;;;;;;;6.91;100.00;100756.94;5077896;28;19932;-80
2021/03/17 00:49:22;;;;;;;;;;;;;;;7.29;100.00;100748.75;5095535;28;20438;-80
2021/03/17 00:51:52;;;;;;;;;;;;;;;7.38;100.00;100754.94;5094230;28;19935;-80
2021/03/17 00:54:37;;;;;;;;;;;;;;;7.37;100.00;100746.94;5096425;28;19931;-80
2021/03/17 00:57:23;;;;;;;;;;;;;;;7.44;100.00;100749.09;5095921;28;20008;-81
2021/03/17 00:59:50;;;;;;;;;;;;;;;7.43;100.00;100764.97;5096313;28;19931;-80
2021/03/17 01:02:17;;;;;;;;;;;;;;;7.49;100.00;100749.59;5094803;28;20386;-80
2021/03/17 01:04:43;;;;;;;;;;;;;;;7.41;100.00;100747.03;5074890;28;19925;-80
2021/03/17 01:07:18;;;;;;;;;;;;;;;7.33;100.00;100740.47;5058015;28;19963;-80
2021/03/17 01:09:45;;;;;;;;;;;;;;;7.23;100.00;100736.28;5111609;28;19970;-80
2021/03/17 01:12:12;;;;;;;;;;;;;;;7.41;100.00;100730.34;5095781;28;19997;-80
2021/03/17 01:14:43;;;;;;;;;;;;;;;7.42;100.00;100732.78;5094936;28;19924;-80
2021/03/17 01:17:10;;;;;;;;;;;;;;;7.44;100.00;100744.31;5094815;28;19928;-80
2021/03/17 01:19:37;;;;;;;;;;;;;;;7.52;100.00;100748.88;5094513;28;19981;-80
2021/03/17 01:22:04;;;;;;;;;;;;;;;7.55;100.00;100742.59;5095793;28;19924;-80
2021/03/17 01:24:32;;;;;;;;;;;;;;;7.49;100.00;100732.91;5093244;28;19932;-80
2021/03/17 01:26:59;;;;;;;;;;;;;;;7.39;100.00;100733.50;5081599;28;19924;-80
2021/03/17 01:29:25;;;;;;;;;;;;;;;7.42;100.00;100726.38;5094307;28;20371;-80
2021/03/17 01:31:52;;;;;;;;;;;;;;;7.38;100.00;100726.28;5059846;28;19982;-80
2021/03/17 01:34:19;;;;;;;;;;;;;;;7.42;100.00;100724.44;5102581;28;19934;-80
2021/03/17 01:36:45;;;;;;;;;;;;;;;7.39;100.00;100727.94;5094290;28;19924;-80
2021/03/17 01:39:12;;;;;;;;;;;;;;;7.43;100.00;100712.13;5095307;28;19924;-80
2021/03/17 01:41:39;;;;;;;;;;;;;;;7.39;100.00;100722.38;5092713;28;19925;-80
2021/03/17 01:44:05;;;;;;;;;;;;;;;7.41;100.00;100711.66;5094270;28;19928;-80
2021/03/17 01:46:32;;;;;;;;;;;;;;;7.23;100.00;100708.50;5093173;28;19924;-80
2021/03/17 01:48:59;;;;;;;;;;;;;;;7.32;100.00;100711.06;5110454;28;19930;-82
2021/03/17 01:51:27;;;;;;;;;;;;;;;7.47;100.00;100713.00;5094420;28;19974;-80
2021/03/17 01:53:54;;;;;;;;;;;;;;;7.43;100.00;100720.47;5093151;28;19928;-80
2021/03/17 01:56:21;;;;;;;;;;;;;;;7.33;100.00;100710.69;5093640;28;19955;-80
2021/03/17 01:58:48;;;;;;;;;;;;;;;7.24;100.00;100710.09;5094915;28;20412;-81
2021/03/17 02:01:14;;;;;;;;;;;;;;;7.13;100.00;100711.03;5093460;28;19967;-80
2021/03/17 02:03:41;;;;;;;;;;;;;;;7.00;100.00;100709.50;5074933;28;20421;-81
2021/03/17 02:06:08;;;;;;;;;;;;;;;7.14;100.00;100701.50;5094781;28;19924;-80
2021/03/17 02:08:37;;;;;;;;;;;;;;;7.05;100.00;100707.28;5094973;28;19924;-80
2021/03/17 02:11:04;;;;;;;;;;;;;;;7.01;100.00;100711.13;5094478;28;19925;-80
2021/03/17 02:13:31;;;;;;;;;;;;;;;6.80;100.00;100710.63;5094707;28;19986;-81
2021/03/17 02:16:03;;;;;;;;;;;;;;;6.81;100.00;100712.22;5094531;28;19928;-80
2021/03/17 02:18:49;;;;;;;;;;;;;;;6.98;100.00;100697.97;5110361;28;19924;-81
2021/03/17 02:21:21;;;;;;;;;;;;;;;6.89;100.00;100691.78;5093419;28;19924;-80
2021/03/17 02:24:03;;;;;;;;;;;;;;;6.77;100.00;100700.22;5093535;28;19928;-81
2021/03/17 02:26:42;;;;;;;;;;;;;;;6.75;100.00;100708.91;5076801;28;19924;-81
2021/03/17 02:29:35;;;;;;;;;;;;;;;6.95;100.00;100695.91;5093330;28;19978;-80
2021/03/17 02:32:06;;;;;;;;;;;;;;;7.07;100.00;100693.00;5080018;28;19974;-80
2021/03/17 02:34:35;;;;;;;;;;;;;;;6.76;100.00;100695.81;5093053;28;19931;-80
2021/03/17 02:37:04;;;;;;;;;;;;;;;6.67;100.00;100700.72;5090296;28;19935;-80
2021/03/17 02:39:38;;;;;;;;;;;;;;;6.81;100.00;100712.22;5093794;28;19996;-80
2021/03/17 02:42:09;;;;;;;;;;;;;;;6.67;100.00;100696.00;5093029;28;19924;-80
2021/03/17 02:44:40;;;;;;;;;;;;;;;6.70;100.00;100705.56;5094213;28;19930;-80
2021/03/17 02:47:07;;;;;;;;;;;;;;;6.79;100.00;100697.88;5093318;28;19924;-80
2021/03/17 02:52:54;;;;;;;;;;;;;;;6.92;100.00;100686.28;5093877;28;19928;-80
2021/03/17 02:55:22;;;;;;;;;;;;;;;6.96;100.00;100691.94;5094260;28;19977;-80
2021/03/17 02:57:52;;;;;;;;;;;;;;;7.11;100.00;100680.00;5092778;28;19925;-80
2021/03/17 03:00:19;;;;;;;;;;;;;;;7.08;100.00;100686.28;5093878;28;19924;-80
2021/03/17 03:02:48;;;;;;;;;;;;;;;7.22;100.00;100673.50;5092648;28;19924;-80
2021/03/17 03:05:16;;;;;;;;;;;;;;;7.29;100.00;100683.97;5075825;28;19924;-80
2021/03/17 03:07:45;;;;;;;;;;;;;;;7.34;100.00;100676.19;5093369;28;19924;-80
2021/03/17 03:10:12;;;;;;;;;;;;;;;7.20;100.00;100680.59;5093750;28;20023;-80
2021/03/17 03:12:40;;;;;;;;;;;;;;;6.92;100.00;100663.28;5092750;28;19932;-81
2021/03/17 03:15:08;;;;;;;;;;;;;;;7.11;100.00;100685.56;5112637;28;19931;-80
2021/03/17 03:17:35;;;;;;;;;;;;;;;7.23;100.00;100679.88;5098259;28;19931;-80
2021/03/17 03:20:05;;;;;;;;;;;;;;;7.23;100.00;100674.31;5096675;28;19925;-80
2021/03/17 03:22:32;;;;;;;;;;;;;;;7.26;100.00;100681.94;5097585;28;19988;-80
2021/03/17 03:24:59;;;;;;;;;;;;;;;7.24;100.00;100673.13;5113320;28;19929;-80
2021/03/17 03:27:27;;;;;;;;;;;;;;;7.16;100.00;100669.38;5076401;28;19932;-80
2021/03/17 03:29:56;;;;;;;;;;;;;;;7.12;100.00;100656.56;5107786;28;20010;-80
2021/03/17 03:32:23;;;;;;;;;;;;;;;7.14;100.00;100657.03;5097740;28;19924;-80
2021/03/17 03:34:49;;;;;;;;;;;;;;;7.10;100.00;100654.16;5097383;28;19924;-80
2021/03/17 03:37:16;;;;;;;;;;;;;;;7.25;100.00;100644.19;5096055;28;19935;-80
2021/03/17 03:39:43;;;;;;;;;;;;;;;7.33;100.00;100651.50;5096546;28;20014;-80
2021/03/17 03:42:09;;;;;;;;;;;;;;;7.27;100.00;100650.97;5096178;28;19924;-80
2021/03/17 03:44:36;;;;;;;;;;;;;;;7.26;100.00;100651.34;5097329;28;20017;-80
2021/03/17 03:47:03;;;;;;;;;;;;;;;7.34;100.00;100636.44;5097378;28;20367;-80
2021/03/17 03:49:29;;;;;;;;;;;;;;;7.27;100.00;100625.97;5097470;28;19932;-80
2021/03/17 03:52:08;;;;;;;;;;;;;;;7.21;100.00;100627.41;5096155;28;20010;-81
2021/03/17 03:54:42;;;;;;;;;;;;;;;7.11;100.00;100622.44;5075869;28;19925;-80
2021/03/17 03:57:08;;;;;;;;;;;;;;;7.06;100.00;100619.09;5090946;28;20363;-81
2021/03/17 03:59:39;;;;;;;;;;;;;;;6.76;100.00;100615.22;5097032;28;19930;-80
2021/03/17 04:02:08;;;;;;;;;;;;;;;6.46;100.00;100622.44;5097182;28;19969;-80
2021/03/17 04:04:37;;;;;;;;;;;;;;;6.31;100.00;100626.03;5095791;28;19946;-80
2021/03/17 04:07:04;;;;;;;;;;;;;;;6.31;100.00;100628.78;5095504;28;19924;-80
2021/03/17 04:09:45;;;;;;;;;;;;;;;6.39;100.00;100616.72;5112483;28;19955;-80
2021/03/17 04:12:13;;;;;;;;;;;;;;;6.30;100.00;100613.31;5096908;28;19924;-80
2021/03/17 04:14:41;;;;;;;;;;;;;;;6.19;100.00;100623.34;5095684;28;20448;-80
2021/03/17 04:17:34;;;;;;;;;;;;;;;6.17;100.00;100614.53;5095630;28;19938;-80
2021/03/17 04:20:04;;;;;;;;;;;;;;;6.19;100.00;100617.78;5095523;28;19924;-80
2021/03/17 04:22:31;;;;;;;;;;;;;;;6.31;100.00;100631.56;5096760;28;19924;-80
2021/03/17 04:24:59;;;;;;;;;;;;;;;6.42;100.00;100627.88;5078314;28;20367;-80
2021/03/17 04:27:27;;;;;;;;;;;;;;;6.50;100.00;100620.53;5095579;28;19928;-80
2021/03/17 04:29:55;;;;;;;;;;;;;;;6.62;100.00;100628.81;5096435;28;20393;-80
2021/03/17 04:32:23;;;;;;;;;;;;;;;6.78;100.00;100627.63;5096459;28;20300;-80
2021/03/17 04:34:51;;;;;;;;;;;;;;;6.78;100.00;100635.13;5094866;28;19944;-80
2021/03/17 04:37:18;;;;;;;;;;;;;;;6.71;100.00;100618.31;5095361;28;19928;-80
2021/03/17 04:39:46;;;;;;;;;;;;;;;6.78;100.00;100610.13;5095135;28;19928;-80
2021/03/17 04:42:13;;;;;;;;;;;;;;;6.65;100.00;100608.66;5096345;28;20359;-80
2021/03/17 04:44:40;;;;;;;;;;;;;;;6.49;100.00;100614.19;5096301;28;19924;-80
2021/03/17 04:47:17;;;;;;;;;;;;;;;6.28;100.00;100605.34;5096120;28;19924;-80
2021/03/17 04:49:44;;;;;;;;;;;;;;;6.18;100.00;100621.72;5095943;28;19955;-80
2021/03/17 04:52:16;;;;;;;;;;;;;;;5.97;100.00;100610.06;5094902;28;19924;-80
2021/03/17 04:54:43;;;;;;;;;;;;;;;5.78;100.00;100609.91;5096234;28;20028;-80
2021/03/17 04:57:14;;;;;;;;;;;;;;;5.80;100.00;100610.34;5094810;28;20295;-80
2021/03/17 04:59:42;;;;;;;;;;;;;;;5.84;100.00;100605.72;5082244;28;19931;-80
2021/03/17 05:02:10;;;;;;;;;;;;;;;5.74;100.00;100600.69;5095929;28;19970;-81
2021/03/17 05:04:37;;;;;;;;;;;;;;;5.67;100.00;100606.00;5094268;28;20375;-80
2021/03/17 05:07:05;;;;;;;;;;;;;;;5.67;100.00;100608.78;5094634;28;19992;-80
2021/03/17 05:09:33;;;;;;;;;;;;;;;5.90;100.00;100604.31;5095632;28;19996;-80
2021/03/17 05:12:03;;;;;;;;;;;;;;;5.99;100.00;100607.72;5095814;28;19938;-80
2021/03/17 05:14:33;;;;;;;;;;;;;;;6.07;100.00;100612.31;5077644;28;19924;-80
2021/03/17 05:17:01;;;;;;;;;;;;;;;5.98;100.00;100623.59;5094706;28;19924;-81
2021/03/17 05:19:32;;;;;;;;;;;;;;;5.88;100.00;100612.19;5095147;28;19968;-80
2021/03/17 05:22:00;;;;;;;;;;;;;;;5.85;100.00;100618.44;5094546;28;19924;-80
2021/03/17 05:24:27;;;;;;;;;;;;;;;5.97;100.00;100615.63;5111202;28;19924;-80
2021/03/17 05:26:55;;;;;;;;;;;;;;;5.78;100.00;100619.03;5094383;28;19924;-80
2021/03/17 05:29:23;;;;;;;;;;;;;;;5.67;100.00;100609.59;5095689;28;20375;-80
2021/03/17 05:31:50;;;;;;;;;;;;;;;5.64;100.00;100602.00;5095226;28;19931;-80
2021/03/17 05:34:17;;;;;;;;;;;;;;;5.55;100.00;100599.38;5093875;28;19928;-80
2021/03/17 05:36:44;;;;;;;;;;;;;;;5.37;100.00;100608.34;5094539;28;19923;-80
2021/03/17 05:39:10;;;;;;;;;;;;;;;5.19;100.00;100618.91;5094294;28;19947;-80
2021/03/17 05:41:37;;;;;;;;;;;;;;;5.11;100.00;100610.72;5093625;28;19959;-80
2021/03/17 05:44:04;;;;;;;;;;;;;;;5.11;100.00;100614.31;5094027;28;19924;-80
2021/03/17 05:46:31;;;;;;;;;;;;;;;5.23;100.00;100617.06;5110737;28;20291;-80
2021/03/17 05:48:58;;;;;;;;;;;;;;;5.29;100.00;100629.50;5093490;28;20020;-80
2021/03/17 05:51:24;;;;;;;;;;;;;;;5.28;100.00;100640.94;5094961;28;19924;-80
2021/03/17 05:53:51;;;;;;;;;;;;;;;5.25;100.00;100659.09;5094708;28;19931;-80
2021/03/17 05:56:18;;;;;;;;;;;;;;;5.17;100.00;100648.94;5073323;28;20387;-80
2021/03/17 05:58:46;;;;;;;;;;;;;;;5.12;100.00;100642.81;5087557;28;19951;-80
2021/03/17 06:01:16;;;;;;;;;;;;;;;5.08;100.00;100656.56;5093111;28;20018;-80
2021/03/17 06:03:43;;;;;;;;;;;;;;;5.08;100.00;100645.50;5094285;28;19924;-80
2021/03/17 06:06:11;;;;;;;;;;;;;;;5.06;100.00;100652.53;5085262;28;20038;-80
2021/03/17 06:08:47;;;;;;;;;;;;;;;5.08;100.00;100673.19;5091348;28;19955;-80
2021/03/17 06:11:14;;;;;;;;;;;;;;;4.98;100.00;100675.63;5082354;28;20004;-80
2021/03/17 06:13:47;;;;;;;;;;;;;;;4.90;100.00;100680.16;5086122;28;19932;-80
2021/03/17 06:16:16;;;;;;;;;;;;;;;4.85;100.00;100691.44;5090655;28;19924;-80
2021/03/17 06:18:44;;;;;;;;;;;;;;;4.84;100.00;100684.31;5094369;28;19924;-80
2021/03/17 06:21:18;;;;;;;;;;;;;;;4.73;100.00;100655.44;5081175;28;20375;-80
2021/03/17 06:23:45;;;;;;;;;;;;;;;4.79;100.00;100665.13;5094247;28;20382;-80
2021/03/17 06:26:12;;;;;;;;;;;;;;;4.84;100.00;100666.88;5094406;28;19935;-80
2021/03/17 06:28:39;;;;;;;;;;;;;;;4.85;100.00;100683.13;5093007;28;19935;-80
2021/03/17 06:31:05;;;;;;;;;;;;;;;4.99;100.00;100689.13;5092663;28;19924;-80
2021/03/17 06:33:32;;;;;;;;;;;;;;;4.99;100.00;100686.38;5093825;28;19936;-80
2021/03/17 06:36:07;;;;;;;;;;;;;;;5.41;100.00;100692.41;5094006;28;20374;-80
2021/03/17 06:38:34;;;;;;;;;;;;;;;6.37;100.00;100671.78;5093930;28;20500;-80
2021/03/17 06:41:01;;;;;;;;;;;;;;;6.63;100.00;100664.56;5093822;28;19924;-80
2021/03/17 06:43:43;;;;;;;;;;;;;;;7.24;100.00;100662.00;5091179;28;19924;-80
2021/03/17 06:46:11;;;;;;;;;;;;;;;7.51;100.00;100647.16;5080397;28;19935;-79
2021/03/17 06:48:52;;;;;;;;;;;;;;;7.19;100.00;100648.41;5091122;28;20328;-80
2021/03/17 06:51:20;;;;;;;;;;;;;;;6.99;100.00;100647.56;5073917;28;20310;-79
2021/03/17 06:53:47;;;;;;;;;;;;;;;6.35;100.00;100669.38;5091773;28;20434;-79
2021/03/17 06:56:17;;;;;;;;;;;;;;;6.26;100.00;100681.78;5081217;28;19924;-80
2021/03/17 06:58:45;;;;;;;;;;;;;;;5.85;100.00;100671.97;5086537;28;19924;-79
2021/03/17 07:01:23;;;;;;;;;;;;;;;5.36;100.00;100679.59;5088350;28;20612;-83
2021/03/17 07:04:00;;;;;;;;;;;;;;;4.98;100.00;100684.72;5089070;28;19981;-82
2021/03/17 07:06:27;;;;;;;;;;;;;;;4.68;100.00;100691.66;5088970;28;19954;-82
2021/03/17 07:09:16;;;;;;;;;;;;;;;4.53;100.00;100700.66;5075607;28;19931;-81
2021/03/17 07:11:43;;;;;;;;;;;;;;;4.41;100.00;100697.88;5089616;28;20015;-82
2021/03/17 07:14:10;;;;;;;;;;;;;;;4.39;100.00;100700.16;5072394;28;19931;-83
2021/03/17 07:16:40;;;;;;;;;;;;;;;4.46;100.00;100699.59;5089954;28;19924;-83
2021/03/17 07:19:29;;;;;;;;;;;;;;;4.52;100.00;100701.81;5089623;28;20022;-78
2021/03/17 07:22:03;;;;;;;;;;;;;;;4.55;100.00;100705.84;5089447;28;19924;-79
2021/03/17 07:24:29;;;;;;;;;;;;;;;4.60;100.00;100706.44;5089609;28;19935;-79
2021/03/17 07:27:10;;;;;;;;;;;;;;;4.64;100.00;100714.84;5089026;28;19931;-77
2021/03/17 07:29:37;;;;;;;;;;;;;;;4.64;100.00;100718.44;5104134;28;20252;-77
2021/03/17 07:32:03;;;;;;;;;;;;;;;4.69;100.00;100715.47;5087735;28;19932;-78
2021/03/17 07:34:30;;;;;;;;;;;;;;;4.75;100.00;100703.00;5089206;28;19949;-78
2021/03/17 07:37:01;;;;;;;;;;;;;;;4.62;100.00;100704.13;5087559;28;19935;-77
2021/03/17 07:39:29;;;;;;;;;;;;;;;4.58;100.00;100713.47;5088892;28;19924;-78
2021/03/17 07:41:58;;;;;;;;;;;;;;;4.68;100.00;100724.09;5090695;28;20435;-78
2021/03/17 07:44:25;;;;;;;;;;;;;;;4.78;100.00;100718.94;5091511;28;20014;-77
2021/03/17 07:46:53;;;;;;;;;;;;;;;4.94;100.00;100742.00;5075496;28;19943;-78
2021/03/17 07:49:22;;;;;;;;;;;;;;;5.01;100.00;100746.97;5089587;28;20372;-78
2021/03/17 07:51:55;;;;;;;;;;;;;;;5.05;100.00;100751.47;5091512;28;20420;-80
2021/03/17 07:54:26;;;;;;;;;;;;;;;4.99;100.00;100743.72;5090220;28;20011;-78
2021/03/17 07:56:52;;;;;;;;;;;;;;;5.15;100.00;100745.47;5091790;28;20027;-78
2021/03/17 07:59:19;;;;;;;;;;;;;;;5.32;100.00;100756.31;5092924;28;19958;-78
2021/03/17 08:01:46;;;;;;;;;;;;;;;5.41;100.00;100758.94;5096698;28;19924;-78
2021/03/17 08:04:14;;;;;;;;;;;;;;;5.68;100.00;100757.41;5096817;28;20351;-78
2021/03/17 08:06:41;;;;;;;;;;;;;;;5.86;100.00;100750.44;5076993;28;19932;-78
2021/03/17 08:09:08;;;;;;;;;;;;;;;5.95;100.00;100737.25;5093044;28;19963;-78
2021/03/17 08:11:36;;;;;;;;;;;;;;;6.09;100.00;100745.97;5095597;28;19924;-78
2021/03/17 08:14:04;;;;;;;;;;;;;;;6.10;100.00;100747.59;5094939;28;20375;-78
2021/03/17 08:16:32;;;;;;;;;;;;;;;6.20;100.00;100753.44;5095573;28;19924;-78
2021/03/17 08:18:59;;;;;;;;;;;;;;;6.37;100.00;100755.09;5096707;28;19924;-78
2021/03/17 08:21:45;;;;;;;;;;;;;;;6.36;100.00;100745.16;5095167;28;19938;-78
2021/03/17 08:24:35;;;;;;;;;;;;;;;6.42;100.00;100733.41;5096420;28;20022;-78
2021/03/17 08:27:06;;;;;;;;;;;;;;;6.62;100.00;100723.25;5095231;28;19932;-78
2021/03/17 08:29:36;;;;;;;;;;;;;;;6.82;100.00;100730.50;5095071;28;19935;-78
2021/03/17 08:32:05;;;;;;;;;;;;;;;6.93;100.00;100720.44;5095239;28;19935;-77
2021/03/17 08:34:33;;;;;;;;;;;;;;;6.86;100.00;100714.72;5095780;28;19935;-85
2021/03/17 08:37:06;;;;;;;;;;;;;;;6.91;100.00;100708.88;5094403;28;19928;-78
2021/03/17 08:39:33;;;;;;;;;;;;;;;6.96;100.00;100705.84;5094973;28;20283;-77
2021/03/17 08:42:18;;;;;;;;;;;;;;;7.26;100.00;100691.09;5092956;28;19946;-78
2021/03/17 08:44:46;;;;;;;;;;;;;;;7.34;100.00;100680.94;5077820;28;19925;-78
2021/03/17 08:47:27;;;;;;;;;;;;;;;7.42;100.00;100681.88;5091286;28;19932;-77
2021/03/17 08:50:15;;;;;;;;;;;;;;;7.53;100.00;100686.50;5095607;28;20026;-78
2021/03/17 08:52:46;;;;;;;;;;;;;;;7.72;100.00;100675.41;5092735;28;20383;-78
2021/03/17 08:55:14;;;;;;;;;;;;;;;7.84;100.00;100672.47;5093612;28;19970;-78
2021/03/17 08:57:54;;;;;;;;;;;;;;;7.94;100.00;100666.31;5091406;28;19928;-78
2021/03/17 09:00:39;;;;;;;;;;;;;;;7.87;100.00;100648.66;5077432;28;19924;-78
2021/03/17 09:03:06;;;;;;;;;;;;;;;7.96;100.00;100660.38;5095662;28;19927;-78
2021/03/17 09:05:33;;;;;;;;;;;;;;;8.00;100.00;100673.19;5095400;28;19931;-79
2021/03/17 09:08:04;;;;;;;;;;;;;;;8.01;100.00;100669.22;5095538;28;19934;-79
2021/03/17 09:10:40;;;;;;;;;;;;;;;7.77;100.00;100663.97;5093739;28;19931;-78
2021/03/17 09:13:07;;;;;;;;;;;;;;;7.83;100.00;100665.28;5094931;28;20355;-79
2021/03/17 09:15:50;;;;;;;;;;;;;;;7.99;100.00;100666.00;5092122;28;19932;-79
2021/03/17 09:18:20;;;;;;;;;;;;;;;8.15;100.00;100649.22;5094776;28;19924;-79
2021/03/17 09:20:48;;;;;;;;;;;;;;;7.93;100.00;100639.66;5093752;28;20337;-79
2021/03/17 09:23:18;;;;;;;;;;;;;;;8.01;100.00;100627.47;5095332;28;19924;-79
2021/03/17 09:25:45;;;;;;;;;;;;;;;8.11;100.00;100638.00;5094407;28;19931;-79
2021/03/17 09:28:17;;;;;;;;;;;;;;;8.13;100.00;100635.66;5092494;28;20600;-78
2021/03/17 09:30:46;;;;;;;;;;;;;;;8.04;100.00;100646.22;5093723;28;19924;-79
2021/03/17 09:33:14;;;;;;;;;;;;;;;8.07;100.00;100641.91;5094572;28;19959;-79
2021/03/17 09:35:45;;;;;;;;;;;;;;;8.16;100.00;100643.28;5093662;28;19924;-79
2021/03/17 09:38:13;;;;;;;;;;;;;;;8.09;100.00;100639.56;5085444;28;20441;-79
2021/03/17 09:40:42;;;;;;;;;;;;;;;8.17;100.00;100642.09;5093210;28;19973;-79
2021/03/17 09:43:22;;;;;;;;;;;;;;;8.21;100.00;100642.19;5094460;28;19928;-79
2021/03/17 09:45:48;;;;;;;;;;;;;;;8.40;100.00;100633.78;5094399;28;20015;-79
2021/03/17 09:48:16;;;;;;;;;;;;;;;8.55;100.00;100625.31;5094479;28;20072;-78
2021/03/17 09:50:44;;;;;;;;;;;;;;;8.48;100.00;100613.25;5095039;28;19968;-81
2021/03/17 09:53:12;;;;;;;;;;;;;;;8.46;100.00;100608.03;5094742;28;19924;-83
2021/03/17 09:55:38;;;;;;;;;;;;;;;8.36;100.00;100600.28;5094635;28;20329;-79
2021/03/17 09:58:06;;;;;;;;;;;;;;;8.56;100.00;100603.81;5094633;28;19924;-81
2021/03/17 10:00:33;;;;;;;;;;;;;;;8.47;100.00;100595.72;5093519;28;19928;-82
2021/03/17 10:03:02;;;;;;;;;;;;;;;8.18;100.00;100612.28;5084777;28;19925;-81
2021/03/17 10:05:28;;;;;;;;;;;;;;;8.21;100.00;100633.81;5085057;28;20011;-82
2021/03/17 10:07:55;;;;;;;;;;;;;;;8.24;100.00;100641.47;5091437;28;19924;-81
2021/03/17 10:10:26;;;;;;;;;;;;;;;8.23;100.00;100643.44;5089742;28;20032;-81
2021/03/17 10:12:53;;;;;;;;;;;;;;;8.22;100.00;100649.34;5090490;28;20373;-81
2021/03/17 10:15:21;;;;;;;;;;;;;;;8.11;100.00;100653.91;5089580;28;19924;-81
2021/03/17 10:17:50;;;;;;;;;;;;;;;8.07;100.00;100645.50;5088864;28;20586;-81
2021/03/17 10:20:19;;;;;;;;;;;;;;;8.14;100.00;100656.75;5090629;28;19951;-82
2021/03/17 10:22:46;;;;;;;;;;;;;;;8.32;100.00;100649.56;5069453;28;20367;-82
2021/03/17 10:25:14;;;;;;;;;;;;;;;8.44;100.00;100641.03;5087797;28;19936;-82
2021/03/17 10:27:42;;;;;;;;;;;;;;;8.54;100.00;100645.97;5090799;28;19928;-82
2021/03/17 10:30:17;;;;;;;;;;;;;;;8.64;100.00;100661.25;5091137;28;19924;-82
2021/03/17 10:32:46;;;;;;;;;;;;;;;8.40;100.00;100622.66;5091106;28;19924;-83
2021/03/17 10:35:17;;;;;;;;;;;;;;;8.19;100.00;100645.34;5071194;28;19925;-82
2021/03/17 10:37:46;;;;;;;;;;;;;;;8.12;100.00;100645.19;5090639;28;19931;-82
2021/03/17 10:40:15;;;;;;;;;;;;;;;8.18;100.00;100642.91;5073070;28;19938;-81
2021/03/17 10:42:46;;;;;;;;;;;;;;;8.19;100.00;100636.16;5089859;28;19997;-80
2021/03/17 10:45:32;;;;;;;;;;;;;;;8.24;100.00;100653.38;5090051;28;19939;-80
2021/03/17 10:48:30;;;;;;;;;;;;;;;8.23;100.00;100643.44;5090853;28;20367;-81
2021/03/17 10:50:57;;;;;;;;;;;;;;;8.31;100.00;100642.41;5085031;28;19978;-78
2021/03/17 10:53:23;;;;;;;;;;;;;;;8.30;100.00;100651.13;5084874;28;20608;-81
2021/03/17 10:55:51;;;;;;;;;;;;;;;8.37;100.00;100652.06;5083088;28;19959;-81
2021/03/17 10:58:21;;;;;;;;;;;;;;;8.40;100.00;100656.88;5085195;28;19924;-81
2021/03/17 11:01:13;;;;;;;;;;;;;;;8.27;100.00;100643.50;5085292;28;19931;-80
2021/03/17 11:03:39;;;;;;;;;;;;;;;8.37;100.00;100618.63;5087620;28;19935;-81
2021/03/17 11:06:10;;;;;;;;;;;;;;;8.48;100.00;100602.88;5088350;28;19963;-80
2021/03/17 11:08:37;;;;;;;;;;;;;;;8.59;100.00;100589.13;5088614;28;19990;-80
2021/03/17 11:11:05;;;;;;;;;;;;;;;8.67;100.00;100582.50;5088123;28;19974;-81
2021/03/17 11:13:33;;;;;;;;;;;;;;;8.89;100.00;100567.72;5089897;28;20389;-81
2021/03/17 11:16:23;;;;;;;;;;;;;;;8.99;100.00;100579.00;5087674;28;19959;-81
2021/03/17 11:18:53;;;;;;;;;;;;;;;9.16;100.00;100595.16;5070168;28;19931;-80
2021/03/17 11:21:27;;;;;;;;;;;;;;;9.05;100.00;100605.38;5087399;28;19985;-81
2021/03/17 11:23:56;;;;;;;;;;;;;;;9.07;100.00;100664.34;5086198;28;19946;-80
2021/03/17 11:26:29;;;;;;;;;;;;;;;8.99;100.00;100703.66;5087804;28;19928;-81
2021/03/17 11:28:57;;;;;;;;;;;;;;;8.82;100.00;100701.38;5088646;28;19924;-80
2021/03/17 11:31:29;;;;;;;;;;;;;;;9.04;100.00;100692.22;5085104;28;20062;-81
2021/03/17 11:33:56;;;;;;;;;;;;;;;9.17;100.00;100701.97;5089070;28;20430;-81
2021/03/17 11:36:24;;;;;;;;;;;;;;;8.90;100.00;100701.16;5091054;28;19924;-79
2021/03/17 11:38:51;;;;;;;;;;;;;;;8.66;100.00;100707.06;5075596;28;20279;-80
2021/03/17 11:41:18;;;;;;;;;;;;;;;8.58;100.00;100693.41;5091490;28;19924;-80
2021/03/17 11:43:46;;;;;;;;;;;;;;;8.73;100.00;100689.69;5091753;28;19924;-80
2021/03/17 11:46:13;;;;;;;;;;;;;;;8.83;100.00;100687.06;5093228;28;19930;-85
2021/03/17 11:48:40;;;;;;;;;;;;;;;8.19;100.00;100706.59;5054387;28;19924;-79
2021/03/17 11:51:07;;;;;;;;;;;;;;;7.92;100.00;100701.25;5088394;28;20347;-79
2021/03/17 11:53:35;;;;;;;;;;;;;;;7.87;100.00;100694.00;5092026;28;20617;-79
2021/03/17 11:56:04;;;;;;;;;;;;;;;7.93;100.00;100686.97;5089598;28;19946;-79
2021/03/17 11:58:30;;;;;;;;;;;;;;;8.02;100.00;100695.91;5092057;28;19924;-83
2021/03/17 12:00:57;;;;;;;;;;;;;;;8.15;100.00;100675.06;5093595;28;19965;-80
2021/03/17 12:03:43;;;;;;;;;;;;;;;8.31;100.00;100670.25;5074212;28;19931;-81
2021/03/17 12:06:10;;;;;;;;;;;;;;;8.50;100.00;100664.63;5092694;28;19931;-84
2021/03/17 12:08:37;;;;;;;;;;;;;;;8.46;100.00;100660.97;5091741;28;19967;-81
2021/03/17 12:11:20;;;;;;;;;;;;;;;8.49;100.00;100646.28;5092252;28;20259;-80
2021/03/17 12:13:46;;;;;;;;;;;;;;;8.47;100.00;100631.94;5071091;28;20428;-80
2021/03/17 12:16:14;;;;;;;;;;;;;;;8.67;100.00;100621.50;5092575;28;19939;-80
2021/03/17 12:18:41;;;;;;;;;;;;;;;8.81;100.00;100619.75;5092798;28;19924;-80
2021/03/17 12:21:08;;;;;;;;;;;;;;;8.87;100.00;100615.47;5092850;28;20571;-87
2021/03/17 12:23:36;;;;;;;;;;;;;;;8.78;100.00;100606.53;5093605;28;19946;-87
2021/03/17 12:26:03;;;;;;;;;;;;;;;8.69;100.00;100605.22;5091670;28;20010;-80
2021/03/17 12:28:30;;;;;;;;;;;;;;;8.55;100.00;100596.63;5089498;28;19928;-80
2021/03/17 12:30:56;;;;;;;;;;;;;;;8.57;100.00;100600.63;5091836;28;20419;-81
2021/03/17 12:33:23;;;;;;;;;;;;;;;8.51;100.00;100596.56;5093179;28;19936;-80
2021/03/17 12:35:50;;;;;;;;;;;;;;;8.55;100.00;100593.84;5095476;28;19930;-84
2021/03/17 12:38:16;;;;;;;;;;;;;;;8.69;100.00;100599.66;5095154;28;19930;-84
2021/03/17 12:40:43;;;;;;;;;;;;;;;8.67;100.00;100607.56;5095656;28;20323;-84
2021/03/17 12:43:10;;;;;;;;;;;;;;;8.51;100.00;100602.13;5094926;28;19924;-80
2021/03/17 12:45:44;;;;;;;;;;;;;;;8.60;100.00;100596.31;5094664;28;20355;-80
2021/03/17 12:48:14;;;;;;;;;;;;;;;8.69;100.00;100597.66;5093846;28;19925;-81
2021/03/17 12:50:41;;;;;;;;;;;;;;;8.68;100.00;100603.59;5111837;28;20015;-81
2021/03/17 12:53:08;;;;;;;;;;;;;;;8.60;100.00;100599.88;5096151;28;19925;-80
2021/03/17 12:55:34;;;;;;;;;;;;;;;8.43;100.00;100611.56;5094927;28;19946;-80
2021/03/17 12:58:01;;;;;;;;;;;;;;;8.43;100.00;100607.97;5092101;28;19928;-79